sensor_id;sensor_type;location;lat;lon;timestamp;temperature;humidity
59977;DHT22;45837;51.076;3.578;2022-10-13T00:00:39;18.30;62.40
59977;DHT22;45837;51.076;3.578;2022-10-13T00:03:05;18.20;62.20
59977;DHT22;45837;51.076;3.578;2022-10-13T00:05:31;18.30;62.50
59977;DHT22;45837;51.076;3.578;2022-10-13T00:07:57;18.20;62.30
59977;DHT22;45837;51.076;3.578;2022-10-13T00:10:24;18.20;62.30
59977;DHT22;45837;51.076;3.578;2022-10-13T00:12:50;18.20;62.30
59977;DHT22;45837;51.076;3.578;2022-10-13T00:15:17;18.20;62.30
59977;DHT22;45837;51.076;3.578;2022-10-13T00:17:43;18.20;62.20
59977;DHT22;45837;51.076;3.578;2022-10-13T00:20:10;18.30;62.20
59977;DHT22;45837;51.076;3.578;2022-10-13T00:22:36;18.30;62.20
59977;DHT22;45837;51.076;3.578;2022-10-13T00:25:02;18.20;62.20
59977;DHT22;45837;51.076;3.578;2022-10-13T00:27:28;18.20;62.30
59977;DHT22;45837;51.076;3.578;2022-10-13T00:29:54;18.20;62.20
59977;DHT22;45837;51.076;3.578;2022-10-13T00:32:20;18.20;62.20
59977;DHT22;45837;51.076;3.578;2022-10-13T00:34:46;18.20;62.20
59977;DHT22;45837;51.076;3.578;2022-10-13T00:37:12;18.20;62.20
59977;DHT22;45837;51.076;3.578;2022-10-13T00:39:38;18.20;62.60
59977;DHT22;45837;51.076;3.578;2022-10-13T00:42:05;18.20;62.20
59977;DHT22;45837;51.076;3.578;2022-10-13T00:47:24;18.20;62.20
59977;DHT22;45837;51.076;3.578;2022-10-13T00:49:51;18.20;62.20
59977;DHT22;45837;51.076;3.578;2022-10-13T00:52:19;18.20;62.20
59977;DHT22;45837;51.076;3.578;2022-10-13T00:54:46;18.20;62.20
59977;DHT22;45837;51.076;3.578;2022-10-13T00:57:13;18.20;62.10
59977;DHT22;45837;51.076;3.578;2022-10-13T00:59:39;18.20;62.10
59977;DHT22;45837;51.076;3.578;2022-10-13T01:02:06;18.20;62.20
59977;DHT22;45837;51.076;3.578;2022-10-13T01:04:36;18.20;62.20
59977;DHT22;45837;51.076;3.578;2022-10-13T01:07:03;18.20;62.20
59977;DHT22;45837;51.076;3.578;2022-10-13T01:09:29;18.20;62.20
59977;DHT22;45837;51.076;3.578;2022-10-13T01:20:51;18.20;62.20
59977;DHT22;45837;51.076;3.578;2022-10-13T01:29:12;18.10;62.20
59977;DHT22;45837;51.076;3.578;2022-10-13T01:37:33;18.10;62.20
59977;DHT22;45837;51.076;3.578;2022-10-13T01:40:13;18.10;62.20
59977;DHT22;45837;51.076;3.578;2022-10-13T01:45:22;18.10;62.20
59977;DHT22;45837;51.076;3.578;2022-10-13T01:47:51;18.10;62.20
59977;DHT22;45837;51.076;3.578;2022-10-13T01:50:18;18.10;62.20
59977;DHT22;45837;51.076;3.578;2022-10-13T01:52:45;18.10;62.20
59977;DHT22;45837;51.076;3.578;2022-10-13T01:55:12;18.10;62.20
59977;DHT22;45837;51.076;3.578;2022-10-13T01:57:40;18.10;62.20
59977;DHT22;45837;51.076;3.578;2022-10-13T02:00:13;18.10;62.10
59977;DHT22;45837;51.076;3.578;2022-10-13T02:05:31;18.10;62.20
59977;DHT22;45837;51.076;3.578;2022-10-13T02:08:06;18.10;62.10
59977;DHT22;45837;51.076;3.578;2022-10-13T02:10:42;18.10;62.20
59977;DHT22;45837;51.076;3.578;2022-10-13T02:13:12;18.10;62.20
59977;DHT22;45837;51.076;3.578;2022-10-13T02:15:45;18.10;62.20
59977;DHT22;45837;51.076;3.578;2022-10-13T02:18:14;18.10;62.20
59977;DHT22;45837;51.076;3.578;2022-10-13T02:20:41;18.10;62.10
59977;DHT22;45837;51.076;3.578;2022-10-13T02:23:10;18.10;62.10
59977;DHT22;45837;51.076;3.578;2022-10-13T02:25:36;18.10;62.10
59977;DHT22;45837;51.076;3.578;2022-10-13T02:28:03;18.10;62.20
59977;DHT22;45837;51.076;3.578;2022-10-13T02:30:34;18.10;62.20
59977;DHT22;45837;51.076;3.578;2022-10-13T02:33:00;18.10;62.20
59977;DHT22;45837;51.076;3.578;2022-10-13T02:35:26;18.00;62.00
59977;DHT22;45837;51.076;3.578;2022-10-13T02:37:52;18.10;62.20
59977;DHT22;45837;51.076;3.578;2022-10-13T02:40:18;18.10;62.20
59977;DHT22;45837;51.076;3.578;2022-10-13T02:42:44;18.10;62.00
59977;DHT22;45837;51.076;3.578;2022-10-13T02:45:10;18.10;62.20
59977;DHT22;45837;51.076;3.578;2022-10-13T02:47:36;18.10;62.20
59977;DHT22;45837;51.076;3.578;2022-10-13T02:50:03;18.10;62.20
59977;DHT22;45837;51.076;3.578;2022-10-13T02:52:29;18.10;62.10
59977;DHT22;45837;51.076;3.578;2022-10-13T02:54:55;18.10;62.20
59977;DHT22;45837;51.076;3.578;2022-10-13T02:57:20;18.10;62.40
59977;DHT22;45837;51.076;3.578;2022-10-13T02:59:48;18.10;62.20
59977;DHT22;45837;51.076;3.578;2022-10-13T03:02:14;18.10;62.40
59977;DHT22;45837;51.076;3.578;2022-10-13T03:04:40;18.10;62.20
59977;DHT22;45837;51.076;3.578;2022-10-13T03:07:05;18.10;62.30
59977;DHT22;45837;51.076;3.578;2022-10-13T03:09:32;18.10;62.20
59977;DHT22;45837;51.076;3.578;2022-10-13T03:11:57;18.00;62.20
59977;DHT22;45837;51.076;3.578;2022-10-13T03:14:23;18.10;62.30
59977;DHT22;45837;51.076;3.578;2022-10-13T03:16:49;18.10;62.30
59977;DHT22;45837;51.076;3.578;2022-10-13T03:19:18;18.10;62.30
59977;DHT22;45837;51.076;3.578;2022-10-13T03:21:44;18.10;62.20
59977;DHT22;45837;51.076;3.578;2022-10-13T03:24:10;18.00;62.20
59977;DHT22;45837;51.076;3.578;2022-10-13T03:26:36;18.10;62.20
59977;DHT22;45837;51.076;3.578;2022-10-13T03:29:02;18.10;62.20
59977;DHT22;45837;51.076;3.578;2022-10-13T03:31:28;18.00;62.20
59977;DHT22;45837;51.076;3.578;2022-10-13T03:34:01;18.00;62.20
59977;DHT22;45837;51.076;3.578;2022-10-13T03:36:27;18.00;62.20
59977;DHT22;45837;51.076;3.578;2022-10-13T03:38:53;18.00;62.20
59977;DHT22;45837;51.076;3.578;2022-10-13T03:41:19;18.00;62.30
59977;DHT22;45837;51.076;3.578;2022-10-13T03:43:48;18.00;62.20
59977;DHT22;45837;51.076;3.578;2022-10-13T03:46:15;18.00;62.20
59977;DHT22;45837;51.076;3.578;2022-10-13T03:48:44;18.00;62.20
59977;DHT22;45837;51.076;3.578;2022-10-13T03:51:15;18.00;62.30
59977;DHT22;45837;51.076;3.578;2022-10-13T03:53:44;18.00;62.30
59977;DHT22;45837;51.076;3.578;2022-10-13T03:56:14;18.00;62.20
59977;DHT22;45837;51.076;3.578;2022-10-13T03:58:47;18.00;62.20
59977;DHT22;45837;51.076;3.578;2022-10-13T04:01:19;18.00;62.20
59977;DHT22;45837;51.076;3.578;2022-10-13T04:03:45;18.00;62.30
59977;DHT22;45837;51.076;3.578;2022-10-13T04:06:10;18.00;62.30
59977;DHT22;45837;51.076;3.578;2022-10-13T04:08:36;18.00;62.30
59977;DHT22;45837;51.076;3.578;2022-10-13T04:11:05;18.00;62.20
59977;DHT22;45837;51.076;3.578;2022-10-13T04:13:32;18.00;62.30
59977;DHT22;45837;51.076;3.578;2022-10-13T04:16:16;18.00;62.20
59977;DHT22;45837;51.076;3.578;2022-10-13T04:18:43;18.00;62.20
59977;DHT22;45837;51.076;3.578;2022-10-13T04:21:11;18.00;62.30
59977;DHT22;45837;51.076;3.578;2022-10-13T04:23:37;18.00;62.10
59977;DHT22;45837;51.076;3.578;2022-10-13T04:26:04;18.00;62.10
59977;DHT22;45837;51.076;3.578;2022-10-13T04:28:30;18.10;62.30
59977;DHT22;45837;51.076;3.578;2022-10-13T04:31:01;18.20;62.90
59977;DHT22;45837;51.076;3.578;2022-10-13T04:33:27;18.10;63.40
59977;DHT22;45837;51.076;3.578;2022-10-13T04:35:53;18.20;63.80
59977;DHT22;45837;51.076;3.578;2022-10-13T04:38:19;18.30;64.00
59977;DHT22;45837;51.076;3.578;2022-10-13T04:40:44;18.30;64.20
59977;DHT22;45837;51.076;3.578;2022-10-13T04:43:10;18.20;64.20
59977;DHT22;45837;51.076;3.578;2022-10-13T04:45:36;18.30;64.10
59977;DHT22;45837;51.076;3.578;2022-10-13T04:48:02;18.30;64.20
59977;DHT22;45837;51.076;3.578;2022-10-13T04:50:28;18.30;64.20
59977;DHT22;45837;51.076;3.578;2022-10-13T04:52:59;18.30;64.20
59977;DHT22;45837;51.076;3.578;2022-10-13T04:55:25;18.40;64.10
59977;DHT22;45837;51.076;3.578;2022-10-13T04:57:51;18.40;64.20
59977;DHT22;45837;51.076;3.578;2022-10-13T05:00:17;18.40;64.20
59977;DHT22;45837;51.076;3.578;2022-10-13T05:02:43;18.40;64.20
59977;DHT22;45837;51.076;3.578;2022-10-13T05:05:09;18.40;64.30
59977;DHT22;45837;51.076;3.578;2022-10-13T05:07:35;18.40;64.30
59977;DHT22;45837;51.076;3.578;2022-10-13T05:10:01;18.40;64.30
59977;DHT22;45837;51.076;3.578;2022-10-13T05:12:26;18.40;64.40
59977;DHT22;45837;51.076;3.578;2022-10-13T05:14:52;18.40;64.20
59977;DHT22;45837;51.076;3.578;2022-10-13T05:17:18;18.40;64.00
59977;DHT22;45837;51.076;3.578;2022-10-13T05:19:44;18.40;64.00
59977;DHT22;45837;51.076;3.578;2022-10-13T05:22:10;18.40;64.00
59977;DHT22;45837;51.076;3.578;2022-10-13T05:24:39;18.40;64.00
59977;DHT22;45837;51.076;3.578;2022-10-13T05:27:10;18.30;64.10
59977;DHT22;45837;51.076;3.578;2022-10-13T05:29:37;18.30;64.10
59977;DHT22;45837;51.076;3.578;2022-10-13T05:32:04;18.30;64.10
59977;DHT22;45837;51.076;3.578;2022-10-13T05:34:30;18.30;64.10
59977;DHT22;45837;51.076;3.578;2022-10-13T05:36:58;18.30;64.10
59977;DHT22;45837;51.076;3.578;2022-10-13T05:39:24;18.20;64.10
59977;DHT22;45837;51.076;3.578;2022-10-13T05:41:49;18.20;64.10
59977;DHT22;45837;51.076;3.578;2022-10-13T05:44:19;18.20;64.20
59977;DHT22;45837;51.076;3.578;2022-10-13T05:46:55;18.20;64.10
59977;DHT22;45837;51.076;3.578;2022-10-13T05:49:21;18.20;65.00
59977;DHT22;45837;51.076;3.578;2022-10-13T05:51:49;18.20;64.10
59977;DHT22;45837;51.076;3.578;2022-10-13T05:54:35;18.20;64.10
59977;DHT22;45837;51.076;3.578;2022-10-13T05:59:35;18.20;64.00
59977;DHT22;45837;51.076;3.578;2022-10-13T06:02:01;18.20;64.00
59977;DHT22;45837;51.076;3.578;2022-10-13T06:04:46;18.20;64.00
59977;DHT22;45837;51.076;3.578;2022-10-13T06:07:13;18.20;64.00
59977;DHT22;45837;51.076;3.578;2022-10-13T06:09:40;18.20;64.10
59977;DHT22;45837;51.076;3.578;2022-10-13T06:12:07;18.10;64.00
59977;DHT22;45837;51.076;3.578;2022-10-13T06:14:33;18.10;63.90
59977;DHT22;45837;51.076;3.578;2022-10-13T06:17:03;18.10;64.00
59977;DHT22;45837;51.076;3.578;2022-10-13T06:19:28;18.20;64.10
59977;DHT22;45837;51.076;3.578;2022-10-13T06:21:54;18.10;64.00
59977;DHT22;45837;51.076;3.578;2022-10-13T06:24:20;18.10;63.90
59977;DHT22;45837;51.076;3.578;2022-10-13T06:26:46;18.10;63.90
59977;DHT22;45837;51.076;3.578;2022-10-13T06:29:11;18.10;63.90
59977;DHT22;45837;51.076;3.578;2022-10-13T06:31:37;18.10;63.90
59977;DHT22;45837;51.076;3.578;2022-10-13T06:34:03;18.10;63.90
59977;DHT22;45837;51.076;3.578;2022-10-13T06:36:29;18.10;64.00
59977;DHT22;45837;51.076;3.578;2022-10-13T06:38:55;18.10;64.00
59977;DHT22;45837;51.076;3.578;2022-10-13T06:41:20;18.10;64.00
59977;DHT22;45837;51.076;3.578;2022-10-13T06:43:46;18.10;64.80
59977;DHT22;45837;51.076;3.578;2022-10-13T06:46:15;18.10;64.10
59977;DHT22;45837;51.076;3.578;2022-10-13T06:48:40;18.10;64.10
59977;DHT22;45837;51.076;3.578;2022-10-13T06:51:09;18.00;63.90
59977;DHT22;45837;51.076;3.578;2022-10-13T06:53:35;18.10;64.10
59977;DHT22;45837;51.076;3.578;2022-10-13T06:56:03;18.00;64.00
59977;DHT22;45837;51.076;3.578;2022-10-13T06:58:29;18.00;63.90
59977;DHT22;45837;51.076;3.578;2022-10-13T07:00:56;18.00;64.00
59977;DHT22;45837;51.076;3.578;2022-10-13T07:03:22;18.00;63.90
59977;DHT22;45837;51.076;3.578;2022-10-13T07:05:51;18.00;63.90
59977;DHT22;45837;51.076;3.578;2022-10-13T07:08:17;18.00;64.00
59977;DHT22;45837;51.076;3.578;2022-10-13T07:10:43;18.00;64.00
59977;DHT22;45837;51.076;3.578;2022-10-13T07:13:09;18.00;64.00
59977;DHT22;45837;51.076;3.578;2022-10-13T07:15:39;18.00;64.00
59977;DHT22;45837;51.076;3.578;2022-10-13T07:18:05;18.00;63.90
59977;DHT22;45837;51.076;3.578;2022-10-13T07:20:31;18.00;63.90
59977;DHT22;45837;51.076;3.578;2022-10-13T07:22:57;18.00;63.90
59977;DHT22;45837;51.076;3.578;2022-10-13T07:25:24;18.00;63.80
59977;DHT22;45837;51.076;3.578;2022-10-13T07:27:49;18.00;63.90
59977;DHT22;45837;51.076;3.578;2022-10-13T07:30:15;18.00;63.90
59977;DHT22;45837;51.076;3.578;2022-10-13T07:32:43;18.00;63.80
59977;DHT22;45837;51.076;3.578;2022-10-13T07:35:10;18.00;63.80
59977;DHT22;45837;51.076;3.578;2022-10-13T07:37:36;18.00;63.80
59977;DHT22;45837;51.076;3.578;2022-10-13T07:40:06;18.00;63.90
59977;DHT22;45837;51.076;3.578;2022-10-13T07:42:33;18.00;63.80
59977;DHT22;45837;51.076;3.578;2022-10-13T07:44:59;18.00;63.70
59977;DHT22;45837;51.076;3.578;2022-10-13T07:47:27;18.00;63.80
59977;DHT22;45837;51.076;3.578;2022-10-13T07:49:53;18.00;63.60
59977;DHT22;45837;51.076;3.578;2022-10-13T07:52:20;18.00;63.60
59977;DHT22;45837;51.076;3.578;2022-10-13T07:54:46;18.00;63.60
59977;DHT22;45837;51.076;3.578;2022-10-13T07:57:11;18.00;63.70
59977;DHT22;45837;51.076;3.578;2022-10-13T07:59:37;18.00;63.70
59977;DHT22;45837;51.076;3.578;2022-10-13T08:02:03;18.00;63.60
59977;DHT22;45837;51.076;3.578;2022-10-13T08:04:30;18.00;63.60
59977;DHT22;45837;51.076;3.578;2022-10-13T08:06:56;18.00;63.60
59977;DHT22;45837;51.076;3.578;2022-10-13T08:09:23;18.00;63.50
59977;DHT22;45837;51.076;3.578;2022-10-13T08:11:50;18.10;63.60
59977;DHT22;45837;51.076;3.578;2022-10-13T08:14:16;18.10;63.60
59977;DHT22;45837;51.076;3.578;2022-10-13T08:16:42;18.00;63.40
59977;DHT22;45837;51.076;3.578;2022-10-13T08:19:15;18.10;63.60
59977;DHT22;45837;51.076;3.578;2022-10-13T08:21:41;18.10;63.60
59977;DHT22;45837;51.076;3.578;2022-10-13T08:24:13;18.00;63.50
59977;DHT22;45837;51.076;3.578;2022-10-13T08:26:39;18.10;63.40
59977;DHT22;45837;51.076;3.578;2022-10-13T08:29:05;18.10;63.40
59977;DHT22;45837;51.076;3.578;2022-10-13T08:31:32;18.10;63.60
59977;DHT22;45837;51.076;3.578;2022-10-13T08:33:59;18.10;63.50
59977;DHT22;45837;51.076;3.578;2022-10-13T08:36:24;18.10;63.40
59977;DHT22;45837;51.076;3.578;2022-10-13T08:38:51;18.10;63.40
59977;DHT22;45837;51.076;3.578;2022-10-13T08:41:44;18.10;63.40
59977;DHT22;45837;51.076;3.578;2022-10-13T08:47:02;18.10;63.50
59977;DHT22;45837;51.076;3.578;2022-10-13T08:49:30;18.10;63.60
59977;DHT22;45837;51.076;3.578;2022-10-13T08:51:56;18.00;63.40
59977;DHT22;45837;51.076;3.578;2022-10-13T08:54:24;18.10;63.60
59977;DHT22;45837;51.076;3.578;2022-10-13T08:56:51;18.00;63.40
59977;DHT22;45837;51.076;3.578;2022-10-13T08:59:17;18.00;63.40
59977;DHT22;45837;51.076;3.578;2022-10-13T09:01:44;18.00;63.30
59977;DHT22;45837;51.076;3.578;2022-10-13T09:04:29;18.00;63.40
59977;DHT22;45837;51.076;3.578;2022-10-13T09:07:13;18.00;63.40
59977;DHT22;45837;51.076;3.578;2022-10-13T09:09:40;18.00;63.50
59977;DHT22;45837;51.076;3.578;2022-10-13T09:12:08;18.00;63.40
59977;DHT22;45837;51.076;3.578;2022-10-13T09:14:37;18.00;63.40
59977;DHT22;45837;51.076;3.578;2022-10-13T09:17:23;18.00;63.30
59977;DHT22;45837;51.076;3.578;2022-10-13T09:22:33;18.00;63.40
59977;DHT22;45837;51.076;3.578;2022-10-13T09:25:14;18.00;63.40
59977;DHT22;45837;51.076;3.578;2022-10-13T09:27:55;18.00;63.50
59977;DHT22;45837;51.076;3.578;2022-10-13T09:30:38;18.00;63.40
59977;DHT22;45837;51.076;3.578;2022-10-13T09:35:35;18.00;63.40
59977;DHT22;45837;51.076;3.578;2022-10-13T09:38:10;18.00;63.30
59977;DHT22;45837;51.076;3.578;2022-10-13T09:40:36;18.10;63.40
59977;DHT22;45837;51.076;3.578;2022-10-13T09:43:23;18.00;63.30
59977;DHT22;45837;51.076;3.578;2022-10-13T09:45:50;18.10;63.40
59977;DHT22;45837;51.076;3.578;2022-10-13T09:48:21;18.00;63.40
59977;DHT22;45837;51.076;3.578;2022-10-13T09:50:49;18.00;63.20
59977;DHT22;45837;51.076;3.578;2022-10-13T09:53:31;18.10;63.40
59977;DHT22;45837;51.076;3.578;2022-10-13T09:56:32;18.00;63.30
59977;DHT22;45837;51.076;3.578;2022-10-13T10:01:31;18.00;63.20
59977;DHT22;45837;51.076;3.578;2022-10-13T10:04:02;18.00;63.20
59977;DHT22;45837;51.076;3.578;2022-10-13T10:06:30;18.10;63.20
59977;DHT22;45837;51.076;3.578;2022-10-13T10:09:02;18.00;63.30
59977;DHT22;45837;51.076;3.578;2022-10-13T10:11:45;18.10;63.20
59977;DHT22;45837;51.076;3.578;2022-10-13T10:14:36;18.10;63.10
59977;DHT22;45837;51.076;3.578;2022-10-13T10:17:25;18.10;63.10
59977;DHT22;45837;51.076;3.578;2022-10-13T10:20:21;18.10;63.10
59977;DHT22;45837;51.076;3.578;2022-10-13T10:25:28;18.10;63.10
59977;DHT22;45837;51.076;3.578;2022-10-13T10:30:52;18.10;63.10
59977;DHT22;45837;51.076;3.578;2022-10-13T10:33:49;18.10;63.30
59977;DHT22;45837;51.076;3.578;2022-10-13T10:36:24;18.10;63.10
59977;DHT22;45837;51.076;3.578;2022-10-13T10:39:06;18.10;63.10
59977;DHT22;45837;51.076;3.578;2022-10-13T10:41:49;18.10;63.10
59977;DHT22;45837;51.076;3.578;2022-10-13T10:44:29;18.10;63.10
59977;DHT22;45837;51.076;3.578;2022-10-13T10:47:01;18.10;63.10
59977;DHT22;45837;51.076;3.578;2022-10-13T10:49:31;18.10;63.00
59977;DHT22;45837;51.076;3.578;2022-10-13T10:52:06;18.10;63.00
59977;DHT22;45837;51.076;3.578;2022-10-13T10:54:44;18.10;63.00
59977;DHT22;45837;51.076;3.578;2022-10-13T11:00:22;18.10;63.00
59977;DHT22;45837;51.076;3.578;2022-10-13T11:13:58;18.10;63.10
59977;DHT22;45837;51.076;3.578;2022-10-13T11:16:32;18.20;63.00
59977;DHT22;45837;51.076;3.578;2022-10-13T11:18:59;18.10;63.00
59977;DHT22;45837;51.076;3.578;2022-10-13T11:40:34;18.10;63.10
59977;DHT22;45837;51.076;3.578;2022-10-13T11:54:30;18.10;63.00
59977;DHT22;45837;51.076;3.578;2022-10-13T11:56:57;18.10;63.10
59977;DHT22;45837;51.076;3.578;2022-10-13T11:59:34;18.20;63.10
59977;DHT22;45837;51.076;3.578;2022-10-13T12:04:37;18.20;63.20
59977;DHT22;45837;51.076;3.578;2022-10-13T12:07:06;18.20;63.20
59977;DHT22;45837;51.076;3.578;2022-10-13T12:09:35;18.20;63.10
59977;DHT22;45837;51.076;3.578;2022-10-13T12:12:14;18.10;63.10
59977;DHT22;45837;51.076;3.578;2022-10-13T12:14:43;18.10;63.00
59977;DHT22;45837;51.076;3.578;2022-10-13T12:17:31;18.10;63.00
59977;DHT22;45837;51.076;3.578;2022-10-13T12:20:15;18.20;63.10
59977;DHT22;45837;51.076;3.578;2022-10-13T12:22:48;18.20;63.10
59977;DHT22;45837;51.076;3.578;2022-10-13T12:25:19;18.20;63.10
59977;DHT22;45837;51.076;3.578;2022-10-13T12:27:47;18.20;63.20
59977;DHT22;45837;51.076;3.578;2022-10-13T12:32:51;18.20;63.20
59977;DHT22;45837;51.076;3.578;2022-10-13T12:35:29;18.20;63.10
59977;DHT22;45837;51.076;3.578;2022-10-13T12:37:57;18.20;63.10
59977;DHT22;45837;51.076;3.578;2022-10-13T12:40:25;18.10;63.10
59977;DHT22;45837;51.076;3.578;2022-10-13T12:42:52;18.20;63.10
59977;DHT22;45837;51.076;3.578;2022-10-13T12:45:20;18.10;63.00
59977;DHT22;45837;51.076;3.578;2022-10-13T12:47:51;18.10;63.00
59977;DHT22;45837;51.076;3.578;2022-10-13T12:55:21;18.20;63.10
59977;DHT22;45837;51.076;3.578;2022-10-13T12:57:50;18.10;63.00
59977;DHT22;45837;51.076;3.578;2022-10-13T13:02:57;18.10;63.10
59977;DHT22;45837;51.076;3.578;2022-10-13T13:08:05;18.10;63.00
59977;DHT22;45837;51.076;3.578;2022-10-13T13:10:55;18.10;63.10
59977;DHT22;45837;51.076;3.578;2022-10-13T13:13:22;18.10;63.10
59977;DHT22;45837;51.076;3.578;2022-10-13T13:15:49;18.10;63.10
59977;DHT22;45837;51.076;3.578;2022-10-13T13:18:35;18.10;63.00
59977;DHT22;45837;51.076;3.578;2022-10-13T13:21:05;18.10;63.10
59977;DHT22;45837;51.076;3.578;2022-10-13T13:23:31;18.10;63.10
59977;DHT22;45837;51.076;3.578;2022-10-13T13:26:20;18.20;63.20
59977;DHT22;45837;51.076;3.578;2022-10-13T13:28:53;18.10;63.20
59977;DHT22;45837;51.076;3.578;2022-10-13T13:31:22;18.10;63.10
59977;DHT22;45837;51.076;3.578;2022-10-13T13:33:49;18.10;63.10
59977;DHT22;45837;51.076;3.578;2022-10-13T13:36:25;18.10;63.20
59977;DHT22;45837;51.076;3.578;2022-10-13T13:38:52;18.10;63.10
59977;DHT22;45837;51.076;3.578;2022-10-13T13:41:18;18.10;63.10
59977;DHT22;45837;51.076;3.578;2022-10-13T13:43:44;18.10;63.10
59977;DHT22;45837;51.076;3.578;2022-10-13T13:46:17;18.10;63.20
59977;DHT22;45837;51.076;3.578;2022-10-13T13:48:44;18.20;63.10
59977;DHT22;45837;51.076;3.578;2022-10-13T13:51:10;18.10;63.20
59977;DHT22;45837;51.076;3.578;2022-10-13T13:53:35;18.10;63.20
59977;DHT22;45837;51.076;3.578;2022-10-13T13:56:01;18.10;63.10
59977;DHT22;45837;51.076;3.578;2022-10-13T13:58:28;18.10;63.20
59977;DHT22;45837;51.076;3.578;2022-10-13T14:00:55;18.10;63.20
59977;DHT22;45837;51.076;3.578;2022-10-13T14:03:20;18.10;63.20
59977;DHT22;45837;51.076;3.578;2022-10-13T14:05:46;18.10;63.20
59977;DHT22;45837;51.076;3.578;2022-10-13T14:08:12;18.10;63.10
59977;DHT22;45837;51.076;3.578;2022-10-13T14:10:39;18.10;63.10
59977;DHT22;45837;51.076;3.578;2022-10-13T14:13:05;18.10;63.10
59977;DHT22;45837;51.076;3.578;2022-10-13T14:15:31;18.10;63.10
59977;DHT22;45837;51.076;3.578;2022-10-13T14:17:57;18.10;63.10
59977;DHT22;45837;51.076;3.578;2022-10-13T14:20:23;18.10;63.20
59977;DHT22;45837;51.076;3.578;2022-10-13T14:22:49;18.10;63.10
59977;DHT22;45837;51.076;3.578;2022-10-13T14:25:15;18.10;63.20
59977;DHT22;45837;51.076;3.578;2022-10-13T14:27:41;18.10;63.10
59977;DHT22;45837;51.076;3.578;2022-10-13T14:30:08;18.10;63.20
59977;DHT22;45837;51.076;3.578;2022-10-13T14:32:35;18.10;63.30
59977;DHT22;45837;51.076;3.578;2022-10-13T14:35:02;18.10;63.20
59977;DHT22;45837;51.076;3.578;2022-10-13T14:37:28;18.10;63.30
59977;DHT22;45837;51.076;3.578;2022-10-13T14:39:53;18.10;63.30
59977;DHT22;45837;51.076;3.578;2022-10-13T14:42:19;18.00;63.20
59977;DHT22;45837;51.076;3.578;2022-10-13T14:44:45;18.10;63.30
59977;DHT22;45837;51.076;3.578;2022-10-13T14:47:11;18.10;64.00
59977;DHT22;45837;51.076;3.578;2022-10-13T14:49:36;18.00;63.40
59977;DHT22;45837;51.076;3.578;2022-10-13T14:52:02;18.10;63.40
59977;DHT22;45837;51.076;3.578;2022-10-13T14:54:28;18.10;63.30
59977;DHT22;45837;51.076;3.578;2022-10-13T14:56:54;18.10;63.40
59977;DHT22;45837;51.076;3.578;2022-10-13T14:59:20;18.10;63.50
59977;DHT22;45837;51.076;3.578;2022-10-13T15:01:47;18.20;63.60
59977;DHT22;45837;51.076;3.578;2022-10-13T15:04:13;18.20;64.00
59977;DHT22;45837;51.076;3.578;2022-10-13T15:06:39;18.30;64.50
59977;DHT22;45837;51.076;3.578;2022-10-13T15:09:06;18.40;64.60
59977;DHT22;45837;51.076;3.578;2022-10-13T15:11:32;18.60;64.60
59977;DHT22;45837;51.076;3.578;2022-10-13T15:13:58;18.70;64.30
59977;DHT22;45837;51.076;3.578;2022-10-13T15:16:26;18.90;64.10
59977;DHT22;45837;51.076;3.578;2022-10-13T15:18:53;19.20;63.80
59977;DHT22;45837;51.076;3.578;2022-10-13T15:21:20;19.30;63.30
59977;DHT22;45837;51.076;3.578;2022-10-13T15:23:46;19.40;63.30
59977;DHT22;45837;51.076;3.578;2022-10-13T15:26:14;19.60;63.40
59977;DHT22;45837;51.076;3.578;2022-10-13T15:28:44;19.80;63.20
59977;DHT22;45837;51.076;3.578;2022-10-13T15:31:13;19.90;62.70
59977;DHT22;45837;51.076;3.578;2022-10-13T15:33:45;20.10;62.40
59977;DHT22;45837;51.076;3.578;2022-10-13T15:36:11;20.20;62.90
59977;DHT22;45837;51.076;3.578;2022-10-13T15:38:38;20.30;62.00
59977;DHT22;45837;51.076;3.578;2022-10-13T15:41:05;20.40;62.00
59977;DHT22;45837;51.076;3.578;2022-10-13T15:43:32;20.40;61.80
59977;DHT22;45837;51.076;3.578;2022-10-13T15:46:01;20.50;61.70
59977;DHT22;45837;51.076;3.578;2022-10-13T15:48:27;20.50;61.50
59977;DHT22;45837;51.076;3.578;2022-10-13T15:50:53;20.60;61.50
59977;DHT22;45837;51.076;3.578;2022-10-13T15:53:19;20.60;61.50
59977;DHT22;45837;51.076;3.578;2022-10-13T15:55:45;20.60;61.40
59977;DHT22;45837;51.076;3.578;2022-10-13T15:58:11;20.60;61.50
59977;DHT22;45837;51.076;3.578;2022-10-13T16:00:38;20.50;61.50
59977;DHT22;45837;51.076;3.578;2022-10-13T16:03:04;20.50;61.70
59977;DHT22;45837;51.076;3.578;2022-10-13T16:05:30;20.50;61.70
59977;DHT22;45837;51.076;3.578;2022-10-13T16:07:56;20.50;61.90
59977;DHT22;45837;51.076;3.578;2022-10-13T16:10:22;20.50;62.10
59977;DHT22;45837;51.076;3.578;2022-10-13T16:12:48;20.40;62.10
59977;DHT22;45837;51.076;3.578;2022-10-13T16:15:15;20.40;62.30
59977;DHT22;45837;51.076;3.578;2022-10-13T16:17:42;20.40;62.40
59977;DHT22;45837;51.076;3.578;2022-10-13T16:20:11;20.30;62.70
59977;DHT22;45837;51.076;3.578;2022-10-13T16:22:36;20.30;62.60
59977;DHT22;45837;51.076;3.578;2022-10-13T16:25:04;20.30;62.60
59977;DHT22;45837;51.076;3.578;2022-10-13T16:27:30;20.40;62.60
59977;DHT22;45837;51.076;3.578;2022-10-13T16:29:56;20.40;62.50
59977;DHT22;45837;51.076;3.578;2022-10-13T16:32:22;20.40;62.20
59977;DHT22;45837;51.076;3.578;2022-10-13T16:34:48;20.50;62.20
59977;DHT22;45837;51.076;3.578;2022-10-13T16:37:17;20.60;62.00
59977;DHT22;45837;51.076;3.578;2022-10-13T16:39:43;20.60;61.90
59977;DHT22;45837;51.076;3.578;2022-10-13T16:42:09;20.70;61.70
59977;DHT22;45837;51.076;3.578;2022-10-13T16:44:35;20.70;61.60
59977;DHT22;45837;51.076;3.578;2022-10-13T16:47:00;20.70;61.50
59977;DHT22;45837;51.076;3.578;2022-10-13T16:49:30;20.80;61.60
59977;DHT22;45837;51.076;3.578;2022-10-13T16:51:56;20.70;61.50
59977;DHT22;45837;51.076;3.578;2022-10-13T16:54:22;20.80;61.70
59977;DHT22;45837;51.076;3.578;2022-10-13T16:56:47;20.70;61.70
59977;DHT22;45837;51.076;3.578;2022-10-13T16:59:16;20.70;61.80
59977;DHT22;45837;51.076;3.578;2022-10-13T17:01:41;20.60;62.10
59977;DHT22;45837;51.076;3.578;2022-10-13T17:04:07;20.60;62.30
59977;DHT22;45837;51.076;3.578;2022-10-13T17:06:33;20.50;62.30
59977;DHT22;45837;51.076;3.578;2022-10-13T17:09:06;20.50;62.50
59977;DHT22;45837;51.076;3.578;2022-10-13T17:11:33;20.50;63.20
59977;DHT22;45837;51.076;3.578;2022-10-13T17:14:03;20.50;63.90
59977;DHT22;45837;51.076;3.578;2022-10-13T17:16:31;20.60;64.90
59977;DHT22;45837;51.076;3.578;2022-10-13T17:18:57;20.60;65.80
59977;DHT22;45837;51.076;3.578;2022-10-13T17:21:31;20.60;66.00
59977;DHT22;45837;51.076;3.578;2022-10-13T17:23:57;20.60;66.40
59977;DHT22;45837;51.076;3.578;2022-10-13T17:26:23;20.60;66.40